createdAt,value
2023-12-04T00:01:46.758Z,17.88
2023-12-04T00:04:15.022Z,19.60
2023-12-04T00:06:43.555Z,18.83
2023-12-04T00:09:11.447Z,19.25
2023-12-04T00:11:40.075Z,19.33
2023-12-04T00:14:08.509Z,19.45
2023-12-04T00:16:37.333Z,18.77
2023-12-04T00:19:05.462Z,19.65
2023-12-04T00:21:34.315Z,19.67
2023-12-04T00:24:02.229Z,18.40
2023-12-04T00:26:30.683Z,19.05
2023-12-04T00:28:59.632Z,23.08
2023-12-04T00:31:28.438Z,20.70
2023-12-04T00:33:56.444Z,19.25
2023-12-04T00:36:25.047Z,20.73
2023-12-04T00:38:52.965Z,20.52
2023-12-04T00:41:21.261Z,19.63
2023-12-04T00:43:48.992Z,20.52
2023-12-04T00:46:17.315Z,19.05
2023-12-04T00:48:45.614Z,20.02
2023-12-04T00:51:13.517Z,19.73
2023-12-04T00:53:41.566Z,19.60
2023-12-04T00:56:10.600Z,19.55
2023-12-04T00:58:38.780Z,20.83
2023-12-04T01:01:07.197Z,19.38
2023-12-04T01:03:35.356Z,20.00
2023-12-04T01:06:04.370Z,19.80
2023-12-04T01:08:32.296Z,21.35
2023-12-04T01:11:00.818Z,20.27
2023-12-04T01:13:28.695Z,21.40
2023-12-04T01:15:57.296Z,20.20
2023-12-04T01:18:25.337Z,20.02
2023-12-04T01:20:53.795Z,20.02
2023-12-04T01:23:21.763Z,20.10
2023-12-04T01:25:50.927Z,20.48
2023-12-04T01:28:18.468Z,18.95
2023-12-04T01:30:46.664Z,18.38
2023-12-04T01:33:14.592Z,18.25
2023-12-04T01:35:43.179Z,19.13
2023-12-04T01:38:11.147Z,17.60
2023-12-04T01:40:39.862Z,17.77
2023-12-04T01:43:08.034Z,18.98
2023-12-04T01:45:36.750Z,15.52
2023-12-04T01:48:05.412Z,17.73
2023-12-04T01:50:35.905Z,16.45
2023-12-04T01:53:03.975Z,15.20
2023-12-04T01:55:34.637Z,14.73
2023-12-04T01:58:04.503Z,12.82
2023-12-04T02:00:33.665Z,10.77
2023-12-04T02:03:02.573Z,9.38
2023-12-04T02:05:31.326Z,8.75
2023-12-04T02:07:59.564Z,9.60
2023-12-04T02:10:27.450Z,8.95
2023-12-04T02:12:55.382Z,8.20
2023-12-04T02:15:23.668Z,8.45
2023-12-04T02:17:51.649Z,10.60
2023-12-04T02:20:20.038Z,11.10
2023-12-04T02:22:47.793Z,12.57
2023-12-04T02:25:26.471Z,11.63
2023-12-04T02:28:07.775Z,11.00
2023-12-04T02:33:07.516Z,9.82
2023-12-04T02:35:36.953Z,10.02
2023-12-04T02:38:05.259Z,11.23
2023-12-04T02:40:33.319Z,11.88
2023-12-04T02:43:01.098Z,10.93
2023-12-04T02:45:29.294Z,11.80
2023-12-04T02:47:58.227Z,11.27
2023-12-04T02:50:26.531Z,10.68
2023-12-04T02:52:53.942Z,12.82
2023-12-04T02:55:22.410Z,13.05
2023-12-04T02:57:50.207Z,12.90
2023-12-04T03:00:19.650Z,14.32
2023-12-04T03:02:47.385Z,13.18
2023-12-04T03:05:16.350Z,14.70
2023-12-04T03:07:48.758Z,13.32
2023-12-04T03:10:18.507Z,14.65
2023-12-04T03:12:50.587Z,14.20
2023-12-04T03:15:37.973Z,11.32
2023-12-04T03:18:09.138Z,15.60
2023-12-04T03:20:37.512Z,14.63
2023-12-04T03:23:05.501Z,13.68
2023-12-04T03:25:33.816Z,12.10
2023-12-04T03:28:01.831Z,12.35
2023-12-04T03:30:30.164Z,13.18
2023-12-04T03:32:58.659Z,12.20
2023-12-04T03:35:28.282Z,12.32
2023-12-04T03:37:56.188Z,11.77
2023-12-04T03:40:24.588Z,12.30
2023-12-04T03:42:52.742Z,13.27
2023-12-04T03:45:20.906Z,13.25
2023-12-04T03:47:48.149Z,13.63
2023-12-04T03:50:16.808Z,13.30
2023-12-04T03:52:46.233Z,12.93
2023-12-04T03:55:15.444Z,13.82
2023-12-04T03:57:43.403Z,12.90
2023-12-04T04:00:13.021Z,12.75
2023-12-04T04:02:41.095Z,13.40
2023-12-04T04:05:09.452Z,13.63
2023-12-04T04:07:37.203Z,11.52
2023-12-04T04:10:05.963Z,13.48
2023-12-04T04:12:34.550Z,14.43
2023-12-04T04:15:02.419Z,13.65
2023-12-04T04:17:30.966Z,14.13
2023-12-04T04:19:59.671Z,14.73
2023-12-04T04:22:27.524Z,15.40
2023-12-04T04:24:56.786Z,15.93
2023-12-04T04:27:25.749Z,15.15
2023-12-04T04:29:54.057Z,17.10
2023-12-04T04:32:21.898Z,16.90
2023-12-04T04:34:50.185Z,16.33
2023-12-04T04:37:17.869Z,16.50
2023-12-04T04:39:46.160Z,16.95
2023-12-04T04:42:13.965Z,17.52
2023-12-04T04:44:41.909Z,16.58
2023-12-04T04:47:09.763Z,17.08
2023-12-04T04:49:38.153Z,17.02
2023-12-04T04:52:06.789Z,16.95
2023-12-04T04:54:34.847Z,17.15
2023-12-04T04:57:03.085Z,16.35
2023-12-04T04:59:31.898Z,17.50
2023-12-04T05:01:59.830Z,17.33
2023-12-04T05:04:27.844Z,17.45
2023-12-04T05:06:55.784Z,17.73
2023-12-04T05:09:23.897Z,16.55
2023-12-04T05:11:51.514Z,22.33
2023-12-04T05:14:19.846Z,18.92
2023-12-04T05:16:47.311Z,17.08
2023-12-04T05:19:15.513Z,17.02
2023-12-04T05:21:43.173Z,18.23
2023-12-04T05:24:11.192Z,17.17
2023-12-04T05:26:38.811Z,17.35
2023-12-04T05:29:06.592Z,17.17
2023-12-04T05:31:34.213Z,18.90
2023-12-04T05:34:02.557Z,19.15
2023-12-04T05:36:30.457Z,19.17
2023-12-04T05:39:01.444Z,20.02
2023-12-04T05:41:29.656Z,18.58
2023-12-04T05:43:57.727Z,18.92
2023-12-04T05:46:25.802Z,19.67
2023-12-04T05:48:53.785Z,20.40
2023-12-04T05:51:21.476Z,19.80
2023-12-04T05:53:49.752Z,22.55
2023-12-04T05:56:17.536Z,22.10
2023-12-04T05:58:45.953Z,21.70
2023-12-04T06:01:13.477Z,20.55
2023-12-04T06:03:41.158Z,20.40
2023-12-04T06:06:09.434Z,22.05
2023-12-04T06:08:37.835Z,19.98
2023-12-04T06:11:06.049Z,21.48
2023-12-04T06:13:34.411Z,20.63
2023-12-04T06:16:02.380Z,22.13
2023-12-04T06:18:31.228Z,21.00
2023-12-04T06:20:59.028Z,19.38
2023-12-04T06:23:27.544Z,20.65
2023-12-04T06:25:55.425Z,21.25
2023-12-04T06:28:24.952Z,20.08
2023-12-04T06:30:53.059Z,21.33
2023-12-04T06:33:21.983Z,22.90
2023-12-04T06:35:50.270Z,23.08
2023-12-04T06:38:20.791Z,21.95
2023-12-04T06:40:48.662Z,20.70
2023-12-04T06:43:20.189Z,21.02
2023-12-04T06:45:48.884Z,19.48
2023-12-04T06:48:19.007Z,18.98
2023-12-04T06:50:47.079Z,22.58
2023-12-04T06:53:15.992Z,21.60
2023-12-04T06:55:44.102Z,20.58
2023-12-04T06:58:12.405Z,21.50
2023-12-04T07:00:41.385Z,19.80
2023-12-04T07:03:12.464Z,22.43
2023-12-04T07:05:40.907Z,18.95
2023-12-04T07:08:09.191Z,20.77
2023-12-04T07:10:37.370Z,20.63
2023-12-04T07:13:05.864Z,21.23
2023-12-04T07:15:33.617Z,20.73
2023-12-04T07:18:03.072Z,21.75
2023-12-04T07:20:31.488Z,21.50
2023-12-04T07:23:00.310Z,21.83
2023-12-04T07:25:28.948Z,19.42
2023-12-04T07:27:59.429Z,21.15
2023-12-04T07:30:28.313Z,23.65
2023-12-04T07:32:56.296Z,22.30
2023-12-04T07:35:25.739Z,22.48
2023-12-04T07:37:54.396Z,22.13
2023-12-04T07:40:24.657Z,21.98
2023-12-04T07:42:53.805Z,21.70
2023-12-04T07:45:22.725Z,22.58
2023-12-04T07:47:53.923Z,23.55
2023-12-04T07:50:21.906Z,22.58
2023-12-04T07:52:50.416Z,22.65
2023-12-04T07:55:19.052Z,24.27
2023-12-04T07:57:47.723Z,24.30
2023-12-04T08:00:16.460Z,23.10
2023-12-04T08:02:47.306Z,23.20
2023-12-04T08:05:16.674Z,23.73
2023-12-04T08:07:45.283Z,23.88
2023-12-04T08:10:13.110Z,22.58
2023-12-04T08:12:41.684Z,23.58
2023-12-04T08:15:10.703Z,23.00
2023-12-04T08:17:40.132Z,22.05
2023-12-04T08:20:10.096Z,20.73
2023-12-04T08:22:38.601Z,21.52
2023-12-04T08:25:07.419Z,21.33
2023-12-04T08:27:36.710Z,20.60
2023-12-04T08:30:08.118Z,21.67
2023-12-04T08:32:36.656Z,21.45
2023-12-04T08:35:06.722Z,19.88
2023-12-04T08:37:35.341Z,22.48
2023-12-04T08:40:04.948Z,19.70
2023-12-04T08:42:34.048Z,21.40
2023-12-04T08:45:02.814Z,19.55
2023-12-04T08:47:31.640Z,20.38
2023-12-04T08:49:59.865Z,21.38
2023-12-04T08:52:29.815Z,20.92
2023-12-04T08:54:58.639Z,21.23
2023-12-04T08:57:27.063Z,22.05
2023-12-04T08:59:55.157Z,20.27
2023-12-04T09:02:23.725Z,20.13
2023-12-04T09:04:52.203Z,18.52
2023-12-04T09:09:52.376Z,17.77
2023-12-04T09:12:21.511Z,15.75
2023-12-04T09:14:49.560Z,15.65
2023-12-04T09:17:18.490Z,17.15
2023-12-04T09:19:47.731Z,17.35
2023-12-04T09:22:19.788Z,17.65
2023-12-04T09:24:49.336Z,18.48
2023-12-04T09:27:18.737Z,18.50
2023-12-04T09:29:46.493Z,19.13
2023-12-04T09:32:14.808Z,20.38
2023-12-04T09:34:43.046Z,18.92
2023-12-04T09:37:12.471Z,19.73
2023-12-04T09:39:42.522Z,19.90
2023-12-04T09:42:11.291Z,20.95
2023-12-04T09:44:40.536Z,19.42
2023-12-04T09:47:09.549Z,20.15
2023-12-04T09:49:38.486Z,20.48
2023-12-04T09:52:07.157Z,19.08
2023-12-04T09:54:37.242Z,19.45
2023-12-04T09:57:06.749Z,19.13
2023-12-04T09:59:36.894Z,19.90
2023-12-04T10:02:06.453Z,21.98
2023-12-04T10:04:36.211Z,20.25
2023-12-04T10:07:05.897Z,19.17
2023-12-04T10:09:34.119Z,20.58
2023-12-04T10:12:03.274Z,21.85
2023-12-04T10:14:31.775Z,21.98
2023-12-04T10:17:00.703Z,21.33
2023-12-04T10:19:33.053Z,22.20
2023-12-04T10:22:01.827Z,23.20
2023-12-04T10:24:33.612Z,21.63
2023-12-04T10:27:02.429Z,24.10
2023-12-04T10:29:34.129Z,22.80
2023-12-04T10:32:03.788Z,25.15
2023-12-04T10:34:35.502Z,22.70
2023-12-04T10:37:08.099Z,22.92
2023-12-04T10:39:56.020Z,25.65
2023-12-04T10:42:28.933Z,20.95
2023-12-04T10:45:01.257Z,23.50
2023-12-04T10:47:32.165Z,22.38
2023-12-04T10:50:00.172Z,24.08
2023-12-04T10:52:31.262Z,23.92
2023-12-04T10:55:01.007Z,23.40
2023-12-04T10:57:40.039Z,22.98
2023-12-04T11:00:10.736Z,23.92
2023-12-04T11:02:49.654Z,25.35
2023-12-04T11:05:19.284Z,23.63
2023-12-04T11:08:15.076Z,24.08
2023-12-04T11:11:10.746Z,23.92
2023-12-04T11:13:43.934Z,23.80
2023-12-04T11:16:33.089Z,20.88
2023-12-04T11:19:40.606Z,22.88
2023-12-04T11:22:09.261Z,22.48
2023-12-04T11:24:38.009Z,22.73
2023-12-04T11:27:06.552Z,23.10
2023-12-04T11:29:36.225Z,22.83
2023-12-04T11:32:08.556Z,21.83
2023-12-04T11:34:38.581Z,21.90
2023-12-04T11:37:07.783Z,19.27
2023-12-04T11:39:40.040Z,23.33
2023-12-04T11:42:08.587Z,22.00
2023-12-04T11:44:37.278Z,22.15
2023-12-04T11:47:07.824Z,23.85
2023-12-04T11:49:37.571Z,21.83
2023-12-04T11:52:06.360Z,22.80
2023-12-04T11:55:01.903Z,20.88
2023-12-04T11:57:35.664Z,21.27
2023-12-04T12:00:12.866Z,22.20
2023-12-04T12:03:14.732Z,21.42
2023-12-04T12:05:33.660Z,19.02
2023-12-04T12:08:04.358Z,20.88
2023-12-04T12:10:32.289Z,21.02
2023-12-04T12:13:00.669Z,20.10
2023-12-04T12:15:30.771Z,20.55
2023-12-04T12:17:59.348Z,21.27
2023-12-04T12:20:28.506Z,21.83
2023-12-04T12:22:56.416Z,19.60
2023-12-04T12:25:28.987Z,21.00
2023-12-04T12:27:58.148Z,19.52
2023-12-04T12:30:27.459Z,21.60
2023-12-04T12:32:56.762Z,20.58
2023-12-04T12:35:26.831Z,20.95
2023-12-04T12:37:55.032Z,20.42
2023-12-04T12:40:23.625Z,20.40
2023-12-04T12:42:53.286Z,20.88
2023-12-04T12:45:22.569Z,20.05
2023-12-04T12:47:53.419Z,20.08
2023-12-04T12:50:23.497Z,20.98
2023-12-04T12:52:51.360Z,20.15
2023-12-04T12:55:26.353Z,18.88
2023-12-04T12:57:59.897Z,18.73
2023-12-04T13:00:29.591Z,21.02
2023-12-04T13:02:58.034Z,20.00
2023-12-04T13:05:26.690Z,20.10
2023-12-04T13:07:54.557Z,20.17
2023-12-04T13:10:24.528Z,20.02
2023-12-04T13:12:55.232Z,19.08
2023-12-04T13:15:23.330Z,20.23
2023-12-04T13:17:52.003Z,19.95
2023-12-04T13:20:20.417Z,21.80
2023-12-04T13:22:48.583Z,20.25
2023-12-04T13:25:17.369Z,20.33
2023-12-04T13:27:45.870Z,21.15
2023-12-04T13:30:14.509Z,20.52
2023-12-04T13:32:42.633Z,21.02
2023-12-04T13:35:13.090Z,21.20
2023-12-04T13:37:41.693Z,19.67
2023-12-04T13:40:14.191Z,21.00
2023-12-04T13:43:00.476Z,21.17
2023-12-04T13:45:28.899Z,21.70
2023-12-04T13:47:57.354Z,22.48
2023-12-04T13:50:26.268Z,21.80
2023-12-04T13:52:57.741Z,22.38
2023-12-04T13:55:53.252Z,20.30
2023-12-04T13:58:47.300Z,21.40
2023-12-04T14:01:16.271Z,20.02
2023-12-04T14:03:46.010Z,20.60
2023-12-04T14:06:15.124Z,20.90
2023-12-04T14:08:43.946Z,21.48
2023-12-04T14:11:12.683Z,21.02
2023-12-04T14:13:41.063Z,21.25
2023-12-04T14:16:10.616Z,19.73
2023-12-04T14:18:38.485Z,19.98
2023-12-04T14:21:08.209Z,21.95
2023-12-04T14:23:36.338Z,20.33
2023-12-04T14:26:04.667Z,21.02
2023-12-04T14:28:40.148Z,20.38
2023-12-04T14:31:12.744Z,21.77
2023-12-04T14:33:43.244Z,21.70
2023-12-04T14:36:15.949Z,21.40
2023-12-04T14:38:44.149Z,22.02
2023-12-04T14:41:12.948Z,20.50
2023-12-04T14:43:41.329Z,20.85
2023-12-04T14:46:10.752Z,21.05
2023-12-04T14:48:41.220Z,22.52
2023-12-04T14:51:12.897Z,21.88
2023-12-04T14:53:46.884Z,21.27
2023-12-04T14:56:36.076Z,21.80
2023-12-04T14:59:07.637Z,22.73
2023-12-04T15:01:54.884Z,21.92
2023-12-04T15:04:25.520Z,20.50
2023-12-04T15:07:12.276Z,21.50
2023-12-04T15:10:06.103Z,24.83
2023-12-04T15:12:55.272Z,23.60
2023-12-04T15:15:50.117Z,24.83
2023-12-04T15:18:48.046Z,25.92
2023-12-04T15:21:16.583Z,26.73
2023-12-04T15:23:44.901Z,27.40
2023-12-04T15:26:13.026Z,27.52
2023-12-04T15:28:41.893Z,26.98
2023-12-04T15:31:11.082Z,27.20
2023-12-04T15:33:39.542Z,27.55
2023-12-04T15:36:10.650Z,26.85
2023-12-04T15:38:39.360Z,28.63
2023-12-04T15:41:07.508Z,26.77
2023-12-04T15:43:35.716Z,25.60
2023-12-04T15:46:04.740Z,25.77
2023-12-04T15:48:36.681Z,23.50
2023-12-04T15:51:06.170Z,25.42
2023-12-04T15:53:34.620Z,25.48
2023-12-04T15:56:07.805Z,25.20
2023-12-04T15:58:38.853Z,23.55
2023-12-04T16:01:07.483Z,23.67
2023-12-04T16:03:36.137Z,23.17
2023-12-04T16:06:04.780Z,24.25
2023-12-04T16:08:33.503Z,26.02
2023-12-04T16:11:01.482Z,24.77
2023-12-04T16:13:30.236Z,26.88
2023-12-04T16:15:58.579Z,25.27
2023-12-04T16:18:27.003Z,26.67
2023-12-04T16:20:55.254Z,28.52
2023-12-04T16:23:24.704Z,26.77
2023-12-04T16:25:55.799Z,25.90
2023-12-04T16:28:24.914Z,23.92
2023-12-04T16:30:53.082Z,23.70
2023-12-04T16:33:22.486Z,24.58
2023-12-04T16:35:52.216Z,25.27
2023-12-04T16:38:20.778Z,24.77
2023-12-04T16:40:48.639Z,23.88
2023-12-04T16:43:17.759Z,23.45
2023-12-04T16:45:46.542Z,24.95
2023-12-04T16:48:14.697Z,24.90
2023-12-04T16:50:43.063Z,25.20
2023-12-04T16:53:12.721Z,25.35
2023-12-04T16:55:40.610Z,25.40
2023-12-04T16:58:10.574Z,24.85
2023-12-04T17:00:39.842Z,25.70
2023-12-04T17:03:09.114Z,27.60
2023-12-04T17:05:37.952Z,23.65
2023-12-04T17:08:06.568Z,23.85
2023-12-04T17:10:34.477Z,26.48
2023-12-04T17:13:03.902Z,23.75
2023-12-04T17:15:32.084Z,23.83
2023-12-04T17:18:01.195Z,25.25
2023-12-04T17:20:29.456Z,24.33
2023-12-04T17:22:58.853Z,24.88
2023-12-04T17:25:26.755Z,24.48
2023-12-04T17:27:58.884Z,25.02
2023-12-04T17:30:27.009Z,25.60
2023-12-04T17:32:55.544Z,25.98
2023-12-04T17:35:23.768Z,26.67
2023-12-04T17:37:51.924Z,27.85
2023-12-04T17:40:21.556Z,25.25
2023-12-04T17:42:51.985Z,26.13
2023-12-04T17:45:19.956Z,24.70
2023-12-04T17:47:48.403Z,25.85
2023-12-04T17:50:17.897Z,26.73
2023-12-04T17:52:46.543Z,26.20
2023-12-04T17:55:15.511Z,26.67
2023-12-04T17:57:44.431Z,23.33
2023-12-04T18:00:16.139Z,25.52
2023-12-04T18:02:47.058Z,26.98
2023-12-04T18:05:16.119Z,28.75
2023-12-04T18:07:44.895Z,33.63
2023-12-04T18:10:13.267Z,25.92
2023-12-04T18:12:42.085Z,29.05
2023-12-04T18:15:13.643Z,24.92
2023-12-04T18:17:46.230Z,24.58
2023-12-04T18:20:16.844Z,25.70
2023-12-04T18:22:46.466Z,29.27
2023-12-04T18:25:15.183Z,24.88
2023-12-04T18:27:44.641Z,24.48
2023-12-04T18:30:14.749Z,27.77
2023-12-04T18:32:43.736Z,27.70
2023-12-04T18:35:12.397Z,25.90
2023-12-04T18:37:46.737Z,25.27
2023-12-04T18:40:15.041Z,26.67
2023-12-04T18:42:44.075Z,25.48
2023-12-04T18:45:13.022Z,25.10
2023-12-04T18:47:45.835Z,25.30
2023-12-04T18:50:14.576Z,24.88
2023-12-04T18:52:43.118Z,24.73
2023-12-04T18:55:11.890Z,25.40
2023-12-04T18:57:40.086Z,27.25
2023-12-04T19:00:09.236Z,25.13
2023-12-04T19:02:37.815Z,26.33
2023-12-04T19:05:06.174Z,26.95
2023-12-04T19:07:35.136Z,27.25
2023-12-04T19:10:03.009Z,26.60
2023-12-04T19:12:31.869Z,26.83
2023-12-04T19:14:59.878Z,36.53
2023-12-04T19:17:28.223Z,38.55
2023-12-04T19:19:56.207Z,35.03
2023-12-04T19:22:24.713Z,33.05
2023-12-04T19:24:53.285Z,40.00
2023-12-04T19:27:21.689Z,40.55
2023-12-04T19:29:52.416Z,36.78
2023-12-04T19:32:21.734Z,61.08
2023-12-04T19:34:50.966Z,37.05
2023-12-04T19:37:19.127Z,33.42
2023-12-04T19:39:46.589Z,33.40
2023-12-04T19:42:15.341Z,33.95
2023-12-04T19:44:47.422Z,29.65
2023-12-04T19:47:17.272Z,27.13
2023-12-04T19:49:45.873Z,27.13
2023-12-04T19:52:14.932Z,34.15
2023-12-04T19:54:43.851Z,28.45
2023-12-04T19:57:12.592Z,27.15
2023-12-04T19:59:40.718Z,25.60
2023-12-04T20:02:08.902Z,25.13
2023-12-04T20:04:42.083Z,25.08
2023-12-04T20:07:11.932Z,25.33
2023-12-04T20:09:40.690Z,37.53
2023-12-04T20:12:09.090Z,30.35
2023-12-04T20:14:37.893Z,27.10
2023-12-04T20:17:06.341Z,26.38
2023-12-04T20:19:34.147Z,25.10
2023-12-04T20:22:02.315Z,24.90
2023-12-04T20:24:30.869Z,26.10
2023-12-04T20:26:59.651Z,25.95
2023-12-04T20:29:27.411Z,26.23
2023-12-04T20:31:55.912Z,26.52
2023-12-04T20:34:24.137Z,26.55
2023-12-04T20:36:56.094Z,26.25
2023-12-04T20:39:24.492Z,27.00
2023-12-04T20:41:53.512Z,30.10
2023-12-04T20:44:21.474Z,26.42
2023-12-04T20:46:51.377Z,25.75
2023-12-04T20:49:19.794Z,24.27
2023-12-04T20:51:48.701Z,28.58
2023-12-04T20:54:17.154Z,26.73
2023-12-04T20:56:45.875Z,25.88
2023-12-04T20:59:14.233Z,26.98
2023-12-04T21:01:42.374Z,28.20
2023-12-04T21:04:10.551Z,24.60
2023-12-04T21:06:39.121Z,26.33
2023-12-04T21:09:06.848Z,31.77
2023-12-04T21:11:35.704Z,31.58
2023-12-04T21:14:04.233Z,30.48
2023-12-04T21:16:32.835Z,30.60
2023-12-04T21:19:01.188Z,31.13
2023-12-04T21:21:29.647Z,30.58
2023-12-04T21:23:58.203Z,30.95
2023-12-04T21:26:26.680Z,29.45
2023-12-04T21:28:54.647Z,32.63
2023-12-04T21:31:23.269Z,31.48
2023-12-04T21:33:51.763Z,29.95
2023-12-04T21:36:19.601Z,33.60
2023-12-04T21:38:47.400Z,32.50
2023-12-04T21:41:15.895Z,34.92
2023-12-04T21:43:44.093Z,35.95
2023-12-04T21:46:12.249Z,34.20
2023-12-04T21:48:40.865Z,34.95
2023-12-04T21:51:09.631Z,33.63
2023-12-04T21:53:37.745Z,36.53
2023-12-04T21:56:06.371Z,38.75
2023-12-04T21:58:34.280Z,35.72
2023-12-04T22:01:02.477Z,37.83
2023-12-04T22:03:30.340Z,36.17
2023-12-04T22:05:59.540Z,36.25
2023-12-04T22:08:28.194Z,34.97
2023-12-04T22:10:56.619Z,35.80
2023-12-04T22:13:24.554Z,36.33
2023-12-04T22:15:52.993Z,34.78
2023-12-04T22:18:21.016Z,35.22
2023-12-04T22:20:49.105Z,37.25
2023-12-04T22:23:18.302Z,39.70
2023-12-04T22:25:47.026Z,39.05
2023-12-04T22:28:15.701Z,41.08
2023-12-04T22:30:44.974Z,37.28
2023-12-04T22:33:13.342Z,43.60
2023-12-04T22:35:42.524Z,38.53
2023-12-04T22:38:13.734Z,39.00
2023-12-04T22:40:42.652Z,41.22
2023-12-04T22:43:10.518Z,47.05
2023-12-04T22:45:39.468Z,46.35
2023-12-04T22:48:07.896Z,44.78
2023-12-04T22:50:36.857Z,40.50
2023-12-04T22:53:09.460Z,41.42
2023-12-04T22:55:38.124Z,44.83
2023-12-04T22:58:06.263Z,46.00
2023-12-04T23:00:34.492Z,39.92
2023-12-04T23:03:02.617Z,39.72
2023-12-04T23:05:31.168Z,40.65
2023-12-04T23:07:59.084Z,37.03
2023-12-04T23:10:27.871Z,41.95
2023-12-04T23:12:58.003Z,40.55
2023-12-04T23:15:26.714Z,36.63
2023-12-04T23:17:55.369Z,40.47
2023-12-04T23:20:23.902Z,38.95
2023-12-04T23:22:52.543Z,38.40
2023-12-04T23:25:21.342Z,38.60
2023-12-04T23:27:49.726Z,36.22
2023-12-04T23:30:17.799Z,38.65
2023-12-04T23:32:46.282Z,34.95
2023-12-04T23:35:15.206Z,39.95
2023-12-04T23:37:43.387Z,37.80
2023-12-04T23:40:11.959Z,38.33
2023-12-04T23:42:40.866Z,41.95
2023-12-04T23:45:09.882Z,42.20
2023-12-04T23:47:38.210Z,37.38
2023-12-04T23:50:07.308Z,38.00
2023-12-04T23:52:35.476Z,36.78
2023-12-04T23:55:04.649Z,38.92
2023-12-04T23:57:32.351Z,41.17
